createdAt,value
2019-04-14T00:00:35.988Z,27.3
2019-04-14T00:01:24.234Z,27.3
2019-04-14T00:02:12.226Z,27.3
2019-04-14T00:03:04.920Z,27.3
2019-04-14T00:03:52.728Z,27.2
2019-04-14T00:04:46.492Z,27.2
2019-04-14T00:05:43.436Z,27.2
2019-04-14T00:06:27.069Z,27.1
2019-04-14T00:07:17.284Z,27.1
2019-04-14T00:08:04.562Z,27.1
2019-04-14T00:08:56.417Z,27.1
2019-04-14T00:09:45.255Z,27
2019-04-14T00:10:37.785Z,27
2019-04-14T00:11:26.370Z,27
2019-04-14T00:12:25.105Z,26.9
2019-04-14T00:13:07.298Z,26.9
2019-04-14T00:13:59.300Z,26.9
2019-04-14T00:14:49.044Z,26.9
2019-04-14T00:16:10.050Z,26.8
2019-04-14T00:16:31.279Z,26.8
2019-04-14T00:17:23.498Z,26.7
2019-04-14T00:18:12.533Z,26.7
2019-04-14T00:19:00.852Z,26.7
2019-04-14T00:19:52.286Z,26.6
2019-04-14T00:20:40.252Z,26.1
2019-04-14T00:21:32.952Z,25.6
2019-04-14T00:22:23.138Z,25.5
2019-04-14T00:23:11.355Z,25.1
2019-04-14T00:24:02.994Z,24.9
2019-04-14T00:24:51.540Z,24.9
2019-04-14T00:25:43.273Z,24.8
2019-04-14T00:26:33.967Z,25
2019-04-14T00:27:24.529Z,25.3
2019-04-14T00:28:12.664Z,25.7
2019-04-14T00:29:04.572Z,25.9
2019-04-14T00:29:52.683Z,26.3
2019-04-14T00:30:45.251Z,26.5
2019-04-14T00:31:34.898Z,26.7
2019-04-14T00:32:23.172Z,26.9
2019-04-14T00:33:13.257Z,27.1
2019-04-14T00:34:03.425Z,27.2
2019-04-14T00:34:53.292Z,27.3
2019-04-14T00:35:42.677Z,27.4
2019-04-14T00:36:33.104Z,27.5
2019-04-14T00:37:23.677Z,27.6
2019-04-14T00:38:15.712Z,27.6
2019-04-14T00:39:03.111Z,27.6
2019-04-14T00:39:51.802Z,27.6
2019-04-14T00:40:49.686Z,27.6
2019-04-14T00:42:11.129Z,27.6
2019-04-14T00:42:34.083Z,27.6
2019-04-14T00:43:24.395Z,27.6
2019-04-14T00:44:13.156Z,27.6
2019-04-14T00:45:04.590Z,27.6
2019-04-14T00:46:21.641Z,27.5
2019-04-14T00:46:49.790Z,27.5
2019-04-14T00:47:33.113Z,27.4
2019-04-14T00:48:42.994Z,27.4
2019-04-14T00:49:14.076Z,27.4
2019-04-14T00:50:04.371Z,27.4
2019-04-14T00:50:52.251Z,27.4
2019-04-14T00:51:50.927Z,27.4
2019-04-14T00:52:34.579Z,27.3
2019-04-14T00:53:25.368Z,27.3
2019-04-14T00:54:13.709Z,27.3
2019-04-14T00:55:05.282Z,27.3
2019-04-14T00:55:55.096Z,27.3
2019-04-14T00:56:43.257Z,27.3
2019-04-14T00:57:34.005Z,27.3
2019-04-14T00:58:23.500Z,27.2
2019-04-14T00:59:14.103Z,27.2
2019-04-14T01:00:03.847Z,27.2
2019-04-14T01:00:57.694Z,27.1
2019-04-14T01:01:44.390Z,27.1
2019-04-14T01:02:33.889Z,27.1
2019-04-14T01:03:24.982Z,27.1
2019-04-14T01:04:12.775Z,27.1
2019-04-14T01:05:02.993Z,27
2019-04-14T01:05:56.826Z,27
2019-04-14T01:06:45.307Z,26.9
2019-04-14T01:07:35.335Z,26.9
2019-04-14T01:08:25.409Z,26.9
2019-04-14T01:09:13.512Z,26.8
2019-04-14T01:10:04.460Z,26.8
2019-04-14T01:10:56.119Z,26.8
2019-04-14T01:11:46.992Z,26.8
2019-04-14T01:12:36.862Z,26.7
2019-04-14T01:13:33.760Z,26.7
2019-04-14T01:14:15.417Z,26.6
2019-04-14T01:15:07.656Z,26.6
2019-04-14T01:16:42.978Z,25.8
2019-04-14T01:17:05.318Z,25.5
2019-04-14T01:17:53.447Z,25.3
2019-04-14T01:18:45.581Z,25
2019-04-14T01:19:35.108Z,24.9
2019-04-14T01:20:25.829Z,24.9
2019-04-14T01:21:16.014Z,24.9
2019-04-14T01:22:07.342Z,25.3
2019-04-14T01:22:55.774Z,25.6
2019-04-14T01:23:47.923Z,25.9
2019-04-14T01:24:36.528Z,26.3
2019-04-14T01:25:26.541Z,26.4
2019-04-14T01:26:15.919Z,26.6
2019-04-14T01:27:03.880Z,26.8
2019-04-14T01:27:54.509Z,27
2019-04-14T01:28:44.531Z,27.2
2019-04-14T01:29:34.816Z,27.3
2019-04-14T01:30:28.316Z,27.4
2019-04-14T01:31:16.896Z,27.5
2019-04-14T01:32:06.500Z,27.6
2019-04-14T01:32:56.702Z,27.6
2019-04-14T01:33:46.858Z,27.6
2019-04-14T01:34:36.890Z,27.6
2019-04-14T01:35:27.304Z,27.6
2019-04-14T01:36:17.478Z,27.6
2019-04-14T01:37:07.746Z,27.6
2019-04-14T01:37:55.566Z,27.6
2019-04-14T01:38:45.671Z,27.6
2019-04-14T01:39:37.075Z,27.6
2019-04-14T01:40:26.981Z,27.6
2019-04-14T01:41:17.640Z,27.5
2019-04-14T01:42:07.600Z,27.5
2019-04-14T01:42:57.844Z,27.5
2019-04-14T01:43:47.921Z,27.4
2019-04-14T01:44:35.730Z,27.4
2019-04-14T01:45:27.412Z,27.4
2019-04-14T01:46:54.714Z,27.4
2019-04-14T01:47:19.135Z,27.4
2019-04-14T01:48:06.953Z,27.4
2019-04-14T01:48:56.910Z,27.4
2019-04-14T01:49:47.080Z,27.3
2019-04-14T01:50:38.503Z,27.3
2019-04-14T01:51:27.107Z,27.3
2019-04-14T01:52:16.670Z,27.3
2019-04-14T01:53:06.062Z,27.3
2019-04-14T01:53:57.444Z,27.3
2019-04-14T01:54:47.867Z,27.3
2019-04-14T01:55:35.187Z,27.2
2019-04-14T01:56:27.537Z,27.2
2019-04-14T01:57:17.763Z,27.2
2019-04-14T01:58:07.838Z,27.1
2019-04-14T01:58:55.864Z,27.1
2019-04-14T01:59:45.984Z,27.1
2019-04-14T02:00:33.662Z,27.1
2019-04-14T02:01:26.464Z,27
2019-04-14T02:02:18.889Z,27
2019-04-14T02:03:04.797Z,26.9
2019-04-14T02:03:56.226Z,26.9
2019-04-14T02:04:46.874Z,26.9
2019-04-14T02:05:36.339Z,26.8
2019-04-14T02:06:24.425Z,26.8
2019-04-14T02:07:18.805Z,26.8
2019-04-14T02:08:09.610Z,26.8
2019-04-14T02:08:59.469Z,26.7
2019-04-14T02:09:49.632Z,26.4
2019-04-14T02:10:39.080Z,25.6
2019-04-14T02:11:29.752Z,25.6
2019-04-14T02:12:18.909Z,25.3
2019-04-14T02:13:09.765Z,25.1
2019-04-14T02:13:59.887Z,24.9
2019-04-14T02:14:47.381Z,24.9
2019-04-14T02:15:39.553Z,25
2019-04-14T02:17:24.099Z,25.3
2019-04-14T02:17:48.072Z,25.9
2019-04-14T02:18:36.645Z,26.1
2019-04-14T02:19:29.009Z,26.4
2019-04-14T02:20:16.881Z,26.6
2019-04-14T02:21:08.496Z,26.8
2019-04-14T02:22:00.586Z,26.9
2019-04-14T02:22:48.392Z,27.1
2019-04-14T02:23:39.348Z,27.3
2019-04-14T02:24:29.396Z,27.3
2019-04-14T02:25:18.754Z,27.4
2019-04-14T02:26:11.490Z,27.5
2019-04-14T02:27:01.225Z,27.5
2019-04-14T02:27:49.271Z,27.6
2019-04-14T02:28:39.619Z,27.6
2019-04-14T02:29:28.117Z,27.6
2019-04-14T02:37:10.078Z,27.6
2019-04-14T02:52:34.734Z,27.4
2019-04-14T03:50:20.429Z,27.4
2019-04-14T03:56:27.551Z,27
2019-04-14T03:56:49.586Z,26.7
2019-04-14T03:57:46.035Z,26.4
2019-04-14T03:58:34.091Z,25.7
2019-04-14T03:59:17.955Z,25.6
2019-04-14T04:00:09.492Z,25.3
2019-04-14T04:01:00.244Z,25
2019-04-14T04:01:47.737Z,25
2019-04-14T04:02:38.488Z,24.9
2019-04-14T04:03:27.947Z,25.1
2019-04-14T04:04:20.527Z,25.4
2019-04-14T04:05:09.008Z,25.7
2019-04-14T04:06:01.441Z,26
2019-04-14T04:06:50.856Z,26.3
2019-04-14T04:07:39.245Z,26.6
2019-04-14T04:08:31.180Z,26.8
2019-04-14T04:09:19.971Z,26.9
2019-04-14T04:10:11.403Z,27.1
2019-04-14T04:11:00.247Z,27.3
2019-04-14T04:11:50.378Z,27.4
2019-04-14T04:12:42.099Z,27.5
2019-04-14T04:13:32.807Z,27.6
2019-04-14T04:14:20.224Z,27.6
2019-04-14T04:15:13.057Z,27.6
2019-04-14T04:15:58.895Z,27.6
2019-04-14T04:16:49.299Z,27.6
2019-04-14T04:17:39.459Z,27.6
2019-04-14T04:18:30.777Z,27.6
2019-04-14T04:19:38.287Z,27.6
2019-04-14T04:20:10.989Z,27.6
2019-04-14T04:21:02.845Z,27.6
2019-04-14T04:21:51.447Z,27.6
2019-04-14T04:22:41.088Z,27.5
2019-04-14T04:23:31.822Z,27.5
2019-04-14T04:24:19.742Z,27.5
2019-04-14T04:25:12.080Z,27.4
2019-04-14T04:26:01.741Z,27.4
2019-04-14T04:26:51.716Z,27.4
2019-04-14T04:27:39.436Z,27.4
2019-04-14T04:28:29.871Z,27.4
2019-04-14T04:29:24.409Z,27.4
2019-04-14T04:30:12.350Z,27.4
2019-04-14T04:31:00.194Z,27.3
2019-04-14T04:31:48.746Z,27.3
2019-04-14T04:32:42.321Z,27.3
2019-04-14T04:33:33.169Z,27.3
2019-04-14T04:34:20.999Z,27.3
2019-04-14T04:35:13.103Z,27.3
2019-04-14T04:36:03.146Z,27.2
2019-04-14T04:36:50.864Z,27.2
2019-04-14T04:37:43.278Z,27.2
2019-04-14T04:38:33.603Z,27.1
2019-04-14T04:39:21.407Z,27.1
2019-04-14T04:40:13.384Z,27.1
2019-04-14T04:41:00.096Z,27.1
2019-04-14T04:41:54.241Z,27
2019-04-14T04:42:42.076Z,26.9
2019-04-14T04:43:30.481Z,26.9
2019-04-14T04:44:23.378Z,26.9
2019-04-14T04:45:11.321Z,26.9
2019-04-14T04:45:59.063Z,26.9
2019-04-14T04:46:54.792Z,26.8
2019-04-14T04:47:40.495Z,26.8
2019-04-14T04:48:33.328Z,26.8
2019-04-14T04:49:48.992Z,26.7
2019-04-14T04:50:14.946Z,26.6
2019-04-14T04:51:03.433Z,26.3
2019-04-14T04:51:51.580Z,25.6
2019-04-14T04:52:42.858Z,25.6
2019-04-14T04:53:34.015Z,25.2
2019-04-14T04:54:24.148Z,25
2019-04-14T04:55:13.369Z,24.9
2019-04-14T04:56:03.537Z,24.9
2019-04-14T04:56:51.759Z,25
2019-04-14T04:57:42.068Z,25.3
2019-04-14T04:58:32.648Z,25.6
2019-04-14T04:59:22.022Z,26
2019-04-14T05:00:17.770Z,26.3
2019-04-14T05:01:16.927Z,26.5
2019-04-14T05:01:53.702Z,26.8
2019-04-14T05:02:46.522Z,26.9
2019-04-14T05:03:36.070Z,27.1
2019-04-14T05:04:24.888Z,27.3
2019-04-14T05:05:12.992Z,27.4
2019-04-14T05:06:04.594Z,27.5
2019-04-14T05:06:55.216Z,27.6
2019-04-14T05:07:43.109Z,27.6
2019-04-14T05:08:34.707Z,27.6
2019-04-14T05:09:25.209Z,27.6
2019-04-14T05:10:15.828Z,27.6
2019-04-14T05:11:03.744Z,27.6
2019-04-14T05:12:00.218Z,27.6
2019-04-14T05:12:43.486Z,27.6
2019-04-14T05:13:34.010Z,27.6
2019-04-14T05:14:26.681Z,27.6
2019-04-14T05:15:16.163Z,27.5
2019-04-14T05:16:08.418Z,27.5
2019-04-14T05:16:52.835Z,27.4
2019-04-14T05:17:47.844Z,27.4
2019-04-14T05:18:35.541Z,27.4
2019-04-14T05:19:59.334Z,27.4
2019-04-14T05:20:24.845Z,27.3
2019-04-14T05:21:13.201Z,27.3
2019-04-14T05:22:00.849Z,27.3
2019-04-14T05:22:54.936Z,27.3
2019-04-14T05:23:43.613Z,27.3
2019-04-14T05:24:31.562Z,27.3
2019-04-14T05:25:21.853Z,27.3
2019-04-14T05:26:12.001Z,27.2
2019-04-14T05:27:05.674Z,27.2
2019-04-14T05:27:53.689Z,27.2
2019-04-14T05:28:43.792Z,27.1
2019-04-14T05:29:32.368Z,27.1
2019-04-14T05:30:22.564Z,27.1
2019-04-14T05:31:14.517Z,27
2019-04-14T05:32:02.290Z,27
2019-04-14T05:32:50.633Z,26.9
2019-04-14T05:33:42.546Z,26.9
2019-04-14T05:34:32.542Z,26.9
2019-04-14T05:35:24.656Z,26.9
2019-04-14T05:36:11.215Z,26.8
2019-04-14T05:36:59.217Z,26.8
2019-04-14T05:37:52.905Z,26.8
2019-04-14T05:38:51.670Z,26.7
2019-04-14T05:39:33.131Z,26.7
2019-04-14T05:40:23.430Z,26.7
2019-04-14T05:41:13.653Z,26.6
2019-04-14T05:42:45.754Z,26.6
2019-04-14T05:43:09.395Z,26.5
2019-04-14T05:44:23.116Z,26.3
2019-04-14T05:44:49.322Z,25.6
2019-04-14T05:45:39.411Z,25.6
2019-04-14T05:46:27.865Z,25.2
2019-04-14T05:47:17.502Z,25
2019-04-14T05:48:10.212Z,24.9
2019-04-14T05:49:00.449Z,24.9
2019-04-14T05:50:15.861Z,25
2019-04-14T05:50:39.982Z,25.5
2019-04-14T05:51:35.616Z,25.7
2019-04-14T05:52:18.986Z,26
2019-04-14T05:53:08.631Z,26.3
2019-04-14T05:53:57.674Z,26.5
2019-04-14T05:54:49.210Z,26.8
2019-04-14T05:55:39.484Z,26.9
2019-04-14T05:56:29.519Z,27.1
2019-04-14T05:57:19.768Z,27.3
2019-04-14T05:58:08.450Z,27.4
2019-04-14T05:59:00.028Z,27.4
2019-04-14T05:59:50.437Z,27.5
2019-04-14T06:00:40.058Z,27.5
2019-04-14T06:01:29.854Z,27.6
2019-04-14T06:02:18.470Z,27.6
2019-04-14T06:05:25.260Z,27.6
2019-04-14T06:05:59.288Z,27.5
2019-04-14T06:06:48.596Z,27.5
2019-04-14T06:07:38.938Z,27.5
2019-04-14T06:08:28.426Z,27.4
2019-04-14T06:09:19.266Z,27.4
2019-04-14T06:10:09.047Z,27.4
2019-04-14T06:10:58.504Z,27.4
2019-04-14T06:11:49.494Z,27.4
2019-04-14T06:12:38.643Z,27.4
2019-04-14T06:13:29.568Z,27.3
2019-04-14T06:14:18.610Z,27.3
2019-04-14T06:15:09.483Z,27.3
2019-04-14T06:15:59.161Z,27.3
2019-04-14T06:16:49.775Z,27.3
2019-04-14T06:17:39.905Z,27.3
2019-04-14T06:18:28.310Z,27.2
2019-04-14T06:19:19.255Z,27.1
2019-04-14T06:20:10.153Z,27.1
2019-04-14T06:20:59.599Z,27.1
2019-04-14T06:21:49.755Z,27.1
2019-04-14T06:22:39.490Z,27
2019-04-14T06:23:30.091Z,27
2019-04-14T06:24:20.919Z,26.9
2019-04-14T06:25:10.175Z,26.9
2019-04-14T06:26:00.253Z,26.9
2019-04-14T06:26:50.681Z,26.8
2019-04-14T06:27:40.095Z,26.8
2019-04-14T06:28:30.463Z,26.8
2019-04-14T06:29:19.363Z,26.7
2019-04-14T06:30:10.575Z,26.6
2019-04-14T06:30:58.886Z,26.6
2019-04-14T06:31:50.656Z,26.6
2019-04-14T06:32:39.677Z,26.6
2019-04-14T06:33:28.117Z,26.5
2019-04-14T06:34:20.316Z,26.4
2019-04-14T06:35:10.917Z,26.4
2019-04-14T06:36:00.702Z,26.4
2019-04-14T06:36:51.007Z,26.4
2019-04-14T06:37:39.536Z,26.3
2019-04-14T06:38:29.994Z,26.3
2019-04-14T06:39:20.479Z,26.3
2019-04-14T06:40:10.302Z,26.2
2019-04-14T06:41:01.359Z,26.2
2019-04-14T06:41:50.929Z,26.1
2019-04-14T06:42:41.494Z,26.1
2019-04-14T06:43:31.009Z,26.1
2019-04-14T06:44:20.309Z,26
2019-04-14T06:45:11.159Z,25.9
2019-04-14T06:46:01.878Z,25.9
2019-04-14T06:46:52.874Z,25.9
2019-04-14T06:47:42.014Z,25.8
2019-04-14T06:48:31.600Z,25.8
2019-04-14T06:49:21.758Z,25.8
2019-04-14T06:50:11.761Z,25.7
2019-04-14T06:51:02.544Z,25.7
2019-04-14T06:51:51.603Z,25.4
2019-04-14T06:52:42.485Z,25
2019-04-14T06:53:32.803Z,25.1
2019-04-14T06:54:21.947Z,25.1
2019-04-14T06:55:12.681Z,24.8
2019-04-14T06:56:04.236Z,24.8
2019-04-14T06:56:52.466Z,24.7
2019-04-14T06:57:41.763Z,24.7
2019-04-14T06:58:32.351Z,24.9
2019-04-14T06:59:22.630Z,25.3
2019-04-14T07:00:13.075Z,25.7
2019-04-14T07:01:02.190Z,25.9
2019-04-14T07:01:53.398Z,26.1
2019-04-14T07:02:45.453Z,26.3
2019-04-14T07:05:08.222Z,26.5
2019-04-14T07:06:01.645Z,26.6
2019-04-14T07:06:51.940Z,26.7
2019-04-14T07:07:37.215Z,26.7
2019-04-14T07:08:31.823Z,26.7
2019-04-14T07:09:18.530Z,26.8
2019-04-14T07:10:09.562Z,26.8
2019-04-14T07:10:58.445Z,26.8
2019-04-14T07:11:49.113Z,26.8
2019-04-14T07:12:39.518Z,26.8
2019-04-14T07:13:30.208Z,26.8
2019-04-14T07:14:17.827Z,26.8
2019-04-14T07:15:09.682Z,26.8
2019-04-14T07:16:00.250Z,26.8
2019-04-14T07:16:53.147Z,26.8
2019-04-14T07:17:40.395Z,26.8
2019-04-14T07:18:28.780Z,26.8
2019-04-14T07:19:19.687Z,26.8
2019-04-14T07:20:12.449Z,26.8
2019-04-14T07:21:00.459Z,26.8
2019-04-14T07:21:50.190Z,26.8
2019-04-14T07:22:39.959Z,26.7
2019-04-14T07:23:30.012Z,26.7
2019-04-14T07:24:20.017Z,26.7
2019-04-14T07:25:09.639Z,26.6
2019-04-14T07:26:00.088Z,26.6
2019-04-14T07:26:50.747Z,26.6
2019-04-14T07:27:39.841Z,26.6
2019-04-14T07:28:30.431Z,26.6
2019-04-14T07:29:24.069Z,26.5
2019-04-14T07:30:10.791Z,26.4
2019-04-14T07:31:00.789Z,26.4
2019-04-14T07:31:50.647Z,26.4
2019-04-14T07:32:40.714Z,26.4
2019-04-14T07:33:30.394Z,26.3
2019-04-14T07:34:20.521Z,26.3
2019-04-14T07:35:11.956Z,26.3
2019-04-14T07:36:01.391Z,26.2
2019-04-14T07:36:51.184Z,26.2
2019-04-14T07:37:40.742Z,26.2
2019-04-14T07:38:31.892Z,26.1
2019-04-14T07:39:21.723Z,26.1
2019-04-14T07:40:10.523Z,26.1
2019-04-14T07:41:01.573Z,26
2019-04-14T07:41:50.523Z,25.9
2019-04-14T07:42:41.916Z,25.9
2019-04-14T07:43:30.428Z,25.9
2019-04-14T07:44:24.672Z,25.9
2019-04-14T07:45:11.135Z,25.6
2019-04-14T07:46:02.350Z,25.1
2019-04-14T07:46:52.395Z,25.1
2019-04-14T07:47:42.613Z,25.2
2019-04-14T07:48:32.501Z,24.8
2019-04-14T07:49:21.939Z,24.7
2019-04-14T07:50:25.098Z,24.6
2019-04-14T07:51:02.549Z,24.6
2019-04-14T07:51:52.186Z,24.8
2019-04-14T07:52:42.308Z,25.3
2019-04-14T07:53:31.740Z,25.6
2019-04-14T07:54:22.325Z,25.9
2019-04-14T07:55:12.645Z,26
2019-04-14T07:56:02.995Z,26.1
2019-04-14T07:56:51.994Z,26.3
2019-04-14T07:57:42.216Z,26.4
2019-04-14T07:58:33.406Z,26.4
2019-04-14T07:59:22.137Z,26.6
2019-04-14T08:00:12.467Z,26.6
2019-04-14T08:01:02.318Z,26.6
2019-04-14T08:01:52.643Z,26.6
2019-04-14T08:02:42.325Z,26.7
2019-04-14T08:03:33.032Z,26.7
2019-04-14T08:04:22.817Z,26.8
2019-04-14T08:05:12.877Z,26.8
2019-04-14T08:06:02.852Z,26.8
2019-04-14T08:06:53.844Z,26.8
2019-04-14T08:07:42.700Z,26.8
2019-04-14T08:08:33.569Z,26.8
2019-04-14T08:09:23.936Z,26.8
2019-04-14T08:10:13.239Z,26.8
2019-04-14T08:11:02.459Z,26.8
2019-04-14T08:11:53.475Z,26.8
2019-04-14T08:12:44.691Z,26.8
2019-04-14T08:13:33.809Z,26.8
2019-04-14T08:14:23.803Z,26.8
2019-04-14T08:15:13.349Z,26.8
2019-04-14T08:16:02.639Z,26.7
2019-04-14T08:16:55.097Z,26.7
2019-04-14T08:17:45.037Z,26.7
2019-04-14T08:18:34.343Z,26.6
2019-04-14T08:19:24.420Z,26.6
2019-04-14T08:20:27.987Z,26.6
2019-04-14T08:21:04.841Z,26.6
2019-04-14T08:21:54.298Z,26.6
2019-04-14T08:22:44.093Z,26.5
2019-04-14T08:23:34.405Z,26.5
2019-04-14T08:24:23.646Z,26.4
2019-04-14T08:25:13.666Z,26.4
2019-04-14T08:26:05.345Z,26.4
2019-04-14T08:26:53.218Z,26.4
2019-04-14T08:27:45.742Z,26.3
2019-04-14T08:28:34.991Z,26.3
2019-04-14T08:29:24.891Z,26.3
2019-04-14T08:30:15.170Z,26.3
2019-04-14T08:31:05.638Z,26.2
2019-04-14T08:31:54.431Z,26.1
2019-04-14T08:32:45.220Z,26.1
2019-04-14T08:33:35.708Z,26.1
2019-04-14T08:34:26.082Z,26.1
2019-04-14T08:35:14.953Z,26.1
2019-04-14T08:36:06.138Z,26
2019-04-14T08:36:54.585Z,25.9
2019-04-14T08:37:44.880Z,25.9
2019-04-14T08:38:35.741Z,25.3
2019-04-14T08:39:26.058Z,25.2
2019-04-14T08:40:15.628Z,25.2
2019-04-14T08:41:04.843Z,24.9
2019-04-14T08:41:54.800Z,24.7
2019-04-14T08:42:46.042Z,24.6
2019-04-14T08:43:35.569Z,24.6
2019-04-14T08:44:25.647Z,24.6
2019-04-14T08:45:16.822Z,25
2019-04-14T08:46:05.545Z,25.4
2019-04-14T08:46:55.572Z,25.7
2019-04-14T08:47:46.227Z,25.9
2019-04-14T08:48:35.909Z,26.1
2019-04-14T08:49:27.093Z,26.3
2019-04-14T08:50:16.860Z,26.4
2019-04-14T08:51:06.663Z,26.5
2019-04-14T08:51:57.092Z,26.6
2019-04-14T08:52:46.307Z,26.7
2019-04-14T08:53:35.966Z,26.8
2019-04-14T08:54:26.622Z,26.8
2019-04-14T08:55:17.273Z,26.9
2019-04-14T08:56:06.755Z,26.9
2019-04-14T08:56:56.834Z,27
2019-04-14T08:57:46.637Z,27
2019-04-14T08:58:35.859Z,27.1
2019-04-14T08:59:26.487Z,27.1
2019-04-14T09:00:16.838Z,27.1
2019-04-14T09:01:06.856Z,27.1
2019-04-14T09:01:56.746Z,27.1
2019-04-14T09:02:45.606Z,27.1
2019-04-14T09:03:37.764Z,27.1
2019-04-14T09:04:27.016Z,27
2019-04-14T09:05:17.258Z,27
2019-04-14T09:06:06.436Z,27
2019-04-14T09:06:58.100Z,27
2019-04-14T09:07:47.908Z,26.9
2019-04-14T09:08:37.621Z,26.9
2019-04-14T09:09:27.843Z,26.9
2019-04-14T09:10:17.993Z,26.9
2019-04-14T09:11:08.064Z,26.9
2019-04-14T09:11:58.177Z,26.8
2019-04-14T09:12:48.238Z,26.8
2019-04-14T09:13:38.088Z,26.8
2019-04-14T09:14:28.475Z,26.8
2019-04-14T09:15:18.338Z,26.7
2019-04-14T09:16:07.805Z,26.7
2019-04-14T09:16:58.826Z,26.7
2019-04-14T09:17:48.107Z,26.6
2019-04-14T09:18:37.945Z,26.6
2019-04-14T09:19:28.606Z,26.6
2019-04-14T09:20:17.330Z,26.5
2019-04-14T09:21:07.018Z,26.5
2019-04-14T09:21:59.225Z,26.5
2019-04-14T09:22:48.736Z,26.4
2019-04-14T09:23:38.789Z,26.4
2019-04-14T09:24:28.140Z,26.4
2019-04-14T09:25:18.901Z,26.3
2019-04-14T09:26:09.232Z,26.3
2019-04-14T09:26:58.986Z,26.3
2019-04-14T09:27:48.520Z,26.3
2019-04-14T09:28:39.972Z,26.2
2019-04-14T09:29:29.012Z,26.2
2019-04-14T09:30:19.795Z,26.1
2019-04-14T09:31:09.087Z,26.1
2019-04-14T09:32:00.457Z,25.3
2019-04-14T09:32:49.248Z,25.1
2019-04-14T09:33:40.400Z,25.1
2019-04-14T09:34:30.079Z,24.9
2019-04-14T09:35:19.410Z,24.6
2019-04-14T09:36:09.147Z,24.5
2019-04-14T09:36:59.772Z,24.5
2019-04-14T09:37:50.166Z,24.6
2019-04-14T09:38:40.406Z,24.9
2019-04-14T09:39:29.759Z,25.4
2019-04-14T09:40:19.426Z,25.7
2019-04-14T09:41:09.502Z,25.9
2019-04-14T09:42:00.636Z,26.1
2019-04-14T09:42:49.626Z,26.3
2019-04-14T09:43:40.181Z,26.4
2019-04-14T09:44:30.289Z,26.5
2019-04-14T09:45:20.064Z,26.6
2019-04-14T09:46:10.954Z,26.7
2019-04-14T09:46:59.788Z,26.8
2019-04-14T09:47:50.344Z,26.8
2019-04-14T09:48:42.651Z,26.9
2019-04-14T09:49:29.928Z,26.9
2019-04-14T09:50:19.348Z,27
2019-04-14T09:51:14.386Z,27
2019-04-14T09:52:01.101Z,27.1
2019-04-14T09:52:50.986Z,27.1
2019-04-14T09:53:40.932Z,27.1
2019-04-14T09:54:31.538Z,27.1
2019-04-14T09:55:24.653Z,27.2
2019-04-14T09:56:11.920Z,27.2
2019-04-14T09:57:01.523Z,27.2
2019-04-14T09:57:51.606Z,27.2
2019-04-14T09:58:41.303Z,27.2
2019-04-14T09:59:31.929Z,27.2
2019-04-14T10:00:20.647Z,27.2
2019-04-14T10:01:14.626Z,27.2
2019-04-14T10:02:01.919Z,27.2
2019-04-14T10:02:51.457Z,27.1
2019-04-14T10:03:42.885Z,27.1
2019-04-14T10:06:09.358Z,27.1
2019-04-14T10:06:59.872Z,27
2019-04-14T10:07:49.458Z,27
2019-04-14T10:08:38.367Z,27
2019-04-14T10:09:29.847Z,26.9
2019-04-14T10:10:20.411Z,26.9
2019-04-14T10:11:08.627Z,26.9
2019-04-14T10:12:06.595Z,26.9
2019-04-14T10:12:49.637Z,26.9
2019-04-14T10:13:39.312Z,26.8
2019-04-14T10:14:28.571Z,26.8
2019-04-14T10:15:18.930Z,26.8
2019-04-14T10:16:09.000Z,26.8
2019-04-14T10:17:02.751Z,26.7
2019-04-14T10:17:48.322Z,26.6
2019-04-14T10:18:38.682Z,26.6
2019-04-14T10:19:27.815Z,26.6
2019-04-14T10:20:20.099Z,26.6
2019-04-14T10:21:23.924Z,26.5
2019-04-14T10:21:59.409Z,26.5
2019-04-14T10:22:49.189Z,26.5
2019-04-14T10:23:43.054Z,26.4
2019-04-14T10:24:29.367Z,26.4
2019-04-14T10:25:19.946Z,26.3
2019-04-14T10:26:10.281Z,25.5
2019-04-14T10:26:59.208Z,25.3
2019-04-14T10:27:49.861Z,25.2
2019-04-14T10:28:40.407Z,24.9
2019-04-14T10:29:29.393Z,24.7
2019-04-14T10:30:20.326Z,24.6
2019-04-14T10:31:09.771Z,24.5
2019-04-14T10:32:00.977Z,24.6
2019-04-14T10:32:49.619Z,24.9
2019-04-14T10:33:39.993Z,25.4
2019-04-14T10:34:29.327Z,25.7
2019-04-14T10:35:20.146Z,26
2019-04-14T10:36:10.826Z,26.1
2019-04-14T10:37:00.008Z,26.3
2019-04-14T10:37:49.947Z,26.4
2019-04-14T10:38:41.147Z,26.5
2019-04-14T10:39:28.516Z,26.6
2019-04-14T10:40:20.021Z,26.8
2019-04-14T10:41:11.428Z,26.8
2019-04-14T10:42:00.966Z,26.9
2019-04-14T10:42:51.539Z,26.9
2019-04-14T10:43:41.339Z,26.9
2019-04-14T10:44:30.320Z,27
2019-04-14T10:45:23.689Z,27.1
2019-04-14T10:46:10.729Z,27.1
2019-04-14T10:47:01.245Z,27.1
2019-04-14T10:47:51.319Z,27.1
2019-04-14T10:48:41.190Z,27.2
2019-04-14T10:49:31.195Z,27.2
2019-04-14T10:50:35.103Z,27.2
2019-04-14T10:51:12.694Z,27.2
2019-04-14T10:52:01.911Z,27.2
2019-04-14T10:52:51.651Z,27.2
2019-04-14T10:53:42.624Z,27.2
2019-04-14T10:54:32.804Z,27.2
2019-04-14T10:55:22.166Z,27.2
2019-04-14T10:56:12.746Z,27.2
2019-04-14T10:57:05.503Z,27.2
2019-04-14T10:57:52.646Z,27.1
2019-04-14T10:58:42.471Z,27.1
2019-04-14T10:59:32.711Z,27.1
2019-04-14T11:00:22.271Z,27.1
2019-04-14T11:01:12.332Z,27.1
2019-04-14T11:02:02.457Z,27
2019-04-14T11:02:51.154Z,27
2019-04-14T11:03:42.062Z,27
2019-04-14T11:04:32.037Z,26.9
2019-04-14T11:05:23.197Z,26.9
2019-04-14T11:06:11.590Z,26.9
2019-04-14T11:07:02.774Z,26.8
2019-04-14T11:07:52.336Z,26.8
2019-04-14T11:08:42.314Z,26.8
2019-04-14T11:09:32.372Z,26.8
2019-04-14T11:10:21.915Z,26.7
2019-04-14T11:11:13.602Z,26.6
2019-04-14T11:12:01.565Z,26.6
2019-04-14T11:12:52.466Z,26.6
2019-04-14T11:13:43.226Z,26.5
2019-04-14T11:14:32.734Z,26.5
2019-04-14T11:15:24.731Z,26.4
2019-04-14T11:16:13.929Z,26.4
2019-04-14T11:17:03.668Z,26.4
2019-04-14T11:17:53.758Z,26.3
2019-04-14T11:18:43.071Z,26.3
2019-04-14T11:19:33.403Z,26.3
2019-04-14T11:20:23.378Z,26.1
2019-04-14T11:21:14.869Z,25.3
2019-04-14T11:22:04.313Z,25.2
2019-04-14T11:23:07.693Z,25.3
2019-04-14T11:23:43.316Z,24.8
2019-04-14T11:24:34.371Z,24.6
2019-04-14T11:25:24.536Z,24.5
2019-04-14T11:26:14.156Z,24.5
2019-04-14T11:27:05.294Z,24.7
2019-04-14T11:27:55.587Z,25.1
2019-04-14T11:28:44.635Z,25.5
2019-04-14T11:29:35.425Z,25.8
2019-04-14T11:30:25.193Z,26.1
2019-04-14T11:31:14.710Z,26.2
2019-04-14T11:32:05.098Z,26.3
2019-04-14T11:32:54.620Z,26.4
2019-04-14T11:33:43.868Z,26.6
2019-04-14T11:34:34.815Z,26.7
2019-04-14T11:35:26.235Z,26.8
2019-04-14T11:36:15.004Z,26.8
2019-04-14T11:37:05.545Z,26.9
2019-04-14T11:37:55.355Z,26.9
2019-04-14T11:38:45.772Z,27
2019-04-14T11:39:35.797Z,27
2019-04-14T11:40:25.101Z,27.1
2019-04-14T11:41:16.218Z,27.1
2019-04-14T11:42:05.955Z,27.1
2019-04-14T11:43:03.430Z,27.1
2019-04-14T11:43:45.858Z,27.1
2019-04-14T11:44:35.840Z,27.1
2019-04-14T11:45:26.673Z,27.1
2019-04-14T11:46:15.858Z,27.1
2019-04-14T11:47:05.029Z,27.1
2019-04-14T11:47:56.082Z,27.1
2019-04-14T11:48:45.991Z,27.1
2019-04-14T11:49:36.114Z,27.1
2019-04-14T11:50:25.975Z,27.1
2019-04-14T11:51:15.727Z,27.1
2019-04-14T11:52:06.374Z,27.1
2019-04-14T11:52:56.051Z,27
2019-04-14T11:53:47.199Z,27
2019-04-14T11:54:37.264Z,27
2019-04-14T11:55:25.193Z,26.9
2019-04-14T11:56:16.781Z,26.9
2019-04-14T11:57:06.396Z,26.9
2019-04-14T11:57:56.423Z,26.9
2019-04-14T11:58:47.370Z,26.8
2019-04-14T11:59:35.739Z,26.8
2019-04-14T12:00:27.606Z,26.8
2019-04-14T12:01:16.658Z,26.8
2019-04-14T12:02:07.724Z,26.7
2019-04-14T12:02:57.131Z,26.6
2019-04-14T12:03:47.469Z,26.6
2019-04-14T12:06:38.034Z,26.5
2019-04-14T12:07:14.643Z,26.4
2019-04-14T12:08:03.562Z,26.4
2019-04-14T12:08:37.997Z,26.4
2019-04-14T12:09:29.174Z,26.4
2019-04-14T12:10:33.798Z,26.3
2019-04-14T12:11:09.777Z,26.3
2019-04-14T12:11:59.611Z,26.3
2019-04-14T12:12:48.708Z,26.2
2019-04-14T12:13:38.195Z,26.2
2019-04-14T12:14:45.270Z,26.2
2019-04-14T12:15:27.200Z,25.5
2019-04-14T12:16:09.569Z,25.3
2019-04-14T12:16:59.585Z,25.2
2019-04-14T12:17:49.685Z,25.2
2019-04-14T12:19:09.500Z,24.8
2019-04-14T12:19:45.098Z,24.5
2019-04-14T12:20:19.365Z,24.5
2019-04-14T12:21:10.153Z,24.6
2019-04-14T12:22:13.503Z,24.8
2019-04-14T12:22:49.085Z,25.3
2019-04-14T12:23:40.026Z,25.6
2019-04-14T12:24:30.498Z,25.9
2019-04-14T12:25:21.237Z,26.1
2019-04-14T12:26:30.052Z,26.2
2019-04-14T12:28:00.997Z,26.4
2019-04-14T12:28:53.624Z,26.6
2019-04-14T12:29:58.792Z,26.6
2019-04-14T12:30:35.491Z,26.8
2019-04-14T12:31:24.667Z,26.8
2019-04-14T12:32:21.679Z,26.8
2019-04-14T12:32:50.899Z,26.9
2019-04-14T12:33:56.378Z,26.9
2019-04-14T12:34:45.229Z,26.9
2019-04-14T12:35:36.135Z,26.9
2019-04-14T12:36:11.994Z,26.9
2019-04-14T12:37:01.983Z,26.9
2019-04-14T12:37:50.939Z,27
2019-04-14T12:39:30.911Z,27
2019-04-14T12:40:19.584Z,27
2019-04-14T12:41:50.342Z,27
2019-04-14T12:42:01.634Z,27
2019-04-14T12:42:50.106Z,27